sensor_id;sensor_type;location;lat;lon;timestamp;pressure;altitude;pressure_sealevel;temperature;humidity
8051;BME280;4068;42.158;24.732;2024-03-17T00:01:44;100027.84;;;7.71;100.00
8051;BME280;4068;42.158;24.732;2024-03-17T00:04:09;100030.22;;;7.76;100.00
8051;BME280;4068;42.158;24.732;2024-03-17T00:06:35;100028.25;;;7.80;100.00
8051;BME280;4068;42.158;24.732;2024-03-17T00:09:00;100032.56;;;7.81;100.00
8051;BME280;4068;42.158;24.732;2024-03-17T00:11:34;100008.88;;;7.65;100.00
8051;BME280;4068;42.158;24.732;2024-03-17T00:14:03;100019.94;;;7.71;100.00
8051;BME280;4068;42.158;24.732;2024-03-17T00:16:30;100010.88;;;7.61;100.00
8051;BME280;4068;42.158;24.732;2024-03-17T00:18:55;100022.38;;;7.60;100.00
8051;BME280;4068;42.158;24.732;2024-03-17T00:21:21;100030.47;;;7.57;100.00
8051;BME280;4068;42.158;24.732;2024-03-17T00:23:48;100016.50;;;7.55;100.00
8051;BME280;4068;42.158;24.732;2024-03-17T00:26:15;100039.16;;;7.59;100.00
8051;BME280;4068;42.158;24.732;2024-03-17T00:28:40;100030.91;;;7.49;100.00
8051;BME280;4068;42.158;24.732;2024-03-17T00:31:07;100026.75;;;7.45;100.00
8051;BME280;4068;42.158;24.732;2024-03-17T00:33:35;100024.81;;;7.49;100.00
8051;BME280;4068;42.158;24.732;2024-03-17T00:36:01;100028.28;;;7.49;100.00
8051;BME280;4068;42.158;24.732;2024-03-17T00:38:26;100030.00;;;7.50;100.00
8051;BME280;4068;42.158;24.732;2024-03-17T00:40:51;99991.50;;;7.32;100.00
8051;BME280;4068;42.158;24.732;2024-03-17T00:43:17;100022.25;;;7.47;100.00
8051;BME280;4068;42.158;24.732;2024-03-17T00:45:42;100019.53;;;7.49;100.00
8051;BME280;4068;42.158;24.732;2024-03-17T00:48:08;100018.38;;;7.38;100.00
8051;BME280;4068;42.158;24.732;2024-03-17T00:50:34;100016.50;;;7.40;100.00
8051;BME280;4068;42.158;24.732;2024-03-17T00:53:00;99983.38;;;7.20;100.00
8051;BME280;4068;42.158;24.732;2024-03-17T00:55:28;100015.66;;;7.40;100.00
8051;BME280;4068;42.158;24.732;2024-03-17T00:57:53;100009.41;;;7.41;100.00
8051;BME280;4068;42.158;24.732;2024-03-17T01:00:19;100020.06;;;7.39;100.00
8051;BME280;4068;42.158;24.732;2024-03-17T01:02:45;100011.22;;;7.40;100.00
8051;BME280;4068;42.158;24.732;2024-03-17T01:05:11;100014.63;;;7.42;100.00
8051;BME280;4068;42.158;24.732;2024-03-17T01:07:36;99972.38;;;7.28;100.00
8051;BME280;4068;42.158;24.732;2024-03-17T01:10:02;100010.59;;;7.51;100.00
8051;BME280;4068;42.158;24.732;2024-03-17T01:12:28;100015.47;;;7.57;100.00
8051;BME280;4068;42.158;24.732;2024-03-17T01:14:53;100013.53;;;7.61;100.00
8051;BME280;4068;42.158;24.732;2024-03-17T01:17:19;100013.22;;;7.66;100.00
8051;BME280;4068;42.158;24.732;2024-03-17T01:19:44;100022.38;;;7.74;100.00
8051;BME280;4068;42.158;24.732;2024-03-17T01:22:10;100014.38;;;7.76;100.00
8051;BME280;4068;42.158;24.732;2024-03-17T01:24:36;99991.53;;;7.60;100.00
8051;BME280;4068;42.158;24.732;2024-03-17T01:27:05;100013.69;;;7.72;100.00
8051;BME280;4068;42.158;24.732;2024-03-17T01:29:30;100011.13;;;7.71;100.00
8051;BME280;4068;42.158;24.732;2024-03-17T01:31:56;99989.81;;;7.59;100.00
8051;BME280;4068;42.158;24.732;2024-03-17T01:34:21;100011.63;;;7.63;100.00
8051;BME280;4068;42.158;24.732;2024-03-17T01:36:47;100008.78;;;7.52;100.00
8051;BME280;4068;42.158;24.732;2024-03-17T01:39:12;100004.63;;;7.48;100.00
8051;BME280;4068;42.158;24.732;2024-03-17T01:41:39;100001.97;;;7.33;100.00
8051;BME280;4068;42.158;24.732;2024-03-17T01:44:04;100015.16;;;7.33;100.00
8051;BME280;4068;42.158;24.732;2024-03-17T01:46:30;100002.88;;;7.18;100.00
8051;BME280;4068;42.158;24.732;2024-03-17T01:48:56;100015.41;;;7.14;100.00
8051;BME280;4068;42.158;24.732;2024-03-17T01:51:23;100015.09;;;7.04;100.00
8051;BME280;4068;42.158;24.732;2024-03-17T01:53:49;100017.22;;;6.98;100.00
8051;BME280;4068;42.158;24.732;2024-03-17T01:56:16;100016.56;;;6.94;100.00
8051;BME280;4068;42.158;24.732;2024-03-17T01:58:45;100007.13;;;6.90;100.00
8051;BME280;4068;42.158;24.732;2024-03-17T02:01:13;100003.72;;;6.88;100.00
8051;BME280;4068;42.158;24.732;2024-03-17T02:03:41;99968.84;;;6.68;100.00
8051;BME280;4068;42.158;24.732;2024-03-17T02:06:10;100005.44;;;6.89;100.00
8051;BME280;4068;42.158;24.732;2024-03-17T02:08:52;99997.94;;;6.97;100.00
8051;BME280;4068;42.158;24.732;2024-03-17T02:11:30;100006.06;;;7.08;100.00
8051;BME280;4068;42.158;24.732;2024-03-17T02:13:57;100004.88;;;7.14;100.00
8051;BME280;4068;42.158;24.732;2024-03-17T02:16:23;100009.84;;;7.19;100.00
8051;BME280;4068;42.158;24.732;2024-03-17T02:18:49;100007.81;;;7.24;100.00
8051;BME280;4068;42.158;24.732;2024-03-17T02:21:15;100015.34;;;7.30;100.00
8051;BME280;4068;42.158;24.732;2024-03-17T02:23:44;100007.06;;;7.36;100.00
8051;BME280;4068;42.158;24.732;2024-03-17T02:26:10;99992.53;;;7.29;100.00
8051;BME280;4068;42.158;24.732;2024-03-17T02:28:43;99996.16;;;7.42;100.00
8051;BME280;4068;42.158;24.732;2024-03-17T02:31:11;99998.41;;;7.49;100.00
8051;BME280;4068;42.158;24.732;2024-03-17T02:33:37;99996.91;;;7.45;100.00
8051;BME280;4068;42.158;24.732;2024-03-17T02:36:04;100000.66;;;7.40;100.00
8051;BME280;4068;42.158;24.732;2024-03-17T02:38:33;99994.25;;;7.30;100.00
8051;BME280;4068;42.158;24.732;2024-03-17T02:41:17;99997.25;;;7.24;100.00
8051;BME280;4068;42.158;24.732;2024-03-17T02:43:44;99998.94;;;7.25;100.00
8051;BME280;4068;42.158;24.732;2024-03-17T02:46:14;100008.75;;;7.23;100.00
8051;BME280;4068;42.158;24.732;2024-03-17T02:48:41;100006.09;;;7.23;100.00
8051;BME280;4068;42.158;24.732;2024-03-17T02:51:18;100008.06;;;7.19;100.00
8051;BME280;4068;42.158;24.732;2024-03-17T02:53:45;100003.56;;;7.21;100.00
8051;BME280;4068;42.158;24.732;2024-03-17T02:56:11;100004.41;;;7.22;100.00
8051;BME280;4068;42.158;24.732;2024-03-17T02:58:37;100003.56;;;7.21;100.00
8051;BME280;4068;42.158;24.732;2024-03-17T03:01:04;100009.66;;;7.22;100.00
8051;BME280;4068;42.158;24.732;2024-03-17T03:03:33;100011.56;;;7.20;100.00
8051;BME280;4068;42.158;24.732;2024-03-17T03:05:59;100016.06;;;7.18;100.00
8051;BME280;4068;42.158;24.732;2024-03-17T03:08:29;99989.75;;;7.02;100.00
8051;BME280;4068;42.158;24.732;2024-03-17T03:10:55;100005.38;;;7.05;100.00
8051;BME280;4068;42.158;24.732;2024-03-17T03:13:20;100005.66;;;7.00;100.00
8051;BME280;4068;42.158;24.732;2024-03-17T03:15:47;99975.50;;;6.74;100.00
8051;BME280;4068;42.158;24.732;2024-03-17T03:18:14;99982.06;;;6.67;100.00
8051;BME280;4068;42.158;24.732;2024-03-17T03:20:40;99997.22;;;6.63;100.00
8051;BME280;4068;42.158;24.732;2024-03-17T03:23:05;100011.94;;;6.67;100.00
8051;BME280;4068;42.158;24.732;2024-03-17T03:25:31;100006.16;;;6.61;100.00
8051;BME280;4068;42.158;24.732;2024-03-17T03:27:56;100008.13;;;6.57;100.00
8051;BME280;4068;42.158;24.732;2024-03-17T03:30:23;100012.88;;;6.50;100.00
8051;BME280;4068;42.158;24.732;2024-03-17T03:32:49;100014.00;;;6.46;100.00
8051;BME280;4068;42.158;24.732;2024-03-17T03:35:15;100016.03;;;6.41;100.00
8051;BME280;4068;42.158;24.732;2024-03-17T03:37:41;100012.22;;;6.31;100.00
8051;BME280;4068;42.158;24.732;2024-03-17T03:40:07;100017.66;;;6.28;100.00
8051;BME280;4068;42.158;24.732;2024-03-17T03:42:43;100002.50;;;6.15;100.00
8051;BME280;4068;42.158;24.732;2024-03-17T03:45:09;100021.66;;;6.19;100.00
8051;BME280;4068;42.158;24.732;2024-03-17T03:47:41;100012.81;;;6.20;100.00
8051;BME280;4068;42.158;24.732;2024-03-17T03:50:08;100019.53;;;6.26;100.00
8051;BME280;4068;42.158;24.732;2024-03-17T03:52:37;100034.28;;;6.28;100.00
8051;BME280;4068;42.158;24.732;2024-03-17T03:55:03;100023.66;;;6.30;100.00
8051;BME280;4068;42.158;24.732;2024-03-17T03:57:30;100024.38;;;6.33;100.00
8051;BME280;4068;42.158;24.732;2024-03-17T03:59:57;100026.00;;;6.36;100.00
8051;BME280;4068;42.158;24.732;2024-03-17T04:02:23;100027.09;;;6.32;100.00
8051;BME280;4068;42.158;24.732;2024-03-17T04:04:50;100031.31;;;6.18;100.00
8051;BME280;4068;42.158;24.732;2024-03-17T04:07:16;100033.19;;;6.32;100.00
8051;BME280;4068;42.158;24.732;2024-03-17T04:09:42;100021.19;;;6.11;100.00
8051;BME280;4068;42.158;24.732;2024-03-17T04:12:07;100014.97;;;5.96;100.00
8051;BME280;4068;42.158;24.732;2024-03-17T04:14:33;100034.25;;;5.96;100.00
8051;BME280;4068;42.158;24.732;2024-03-17T04:16:59;100037.44;;;5.85;100.00
8051;BME280;4068;42.158;24.732;2024-03-17T04:19:24;100038.03;;;5.91;100.00
8051;BME280;4068;42.158;24.732;2024-03-17T04:21:51;100038.00;;;5.75;100.00
8051;BME280;4068;42.158;24.732;2024-03-17T04:24:16;100031.41;;;5.83;100.00
8051;BME280;4068;42.158;24.732;2024-03-17T04:26:42;100041.66;;;5.72;100.00
8051;BME280;4068;42.158;24.732;2024-03-17T04:29:08;100007.78;;;5.48;100.00
8051;BME280;4068;42.158;24.732;2024-03-17T04:31:34;100043.56;;;5.68;100.00
8051;BME280;4068;42.158;24.732;2024-03-17T04:33:59;100047.84;;;5.71;100.00
8051;BME280;4068;42.158;24.732;2024-03-17T04:36:25;100057.03;;;5.80;100.00
8051;BME280;4068;42.158;24.732;2024-03-17T04:38:50;100045.75;;;5.78;100.00
8051;BME280;4068;42.158;24.732;2024-03-17T04:41:16;100065.63;;;5.83;100.00
8051;BME280;4068;42.158;24.732;2024-03-17T04:43:42;100060.09;;;5.88;100.00
8051;BME280;4068;42.158;24.732;2024-03-17T04:46:07;100067.66;;;5.94;100.00
8051;BME280;4068;42.158;24.732;2024-03-17T04:48:37;100069.25;;;5.98;100.00
8051;BME280;4068;42.158;24.732;2024-03-17T04:51:03;100074.22;;;6.04;100.00
8051;BME280;4068;42.158;24.732;2024-03-17T04:53:29;100070.31;;;6.12;100.00
8051;BME280;4068;42.158;24.732;2024-03-17T04:56:02;100080.59;;;6.16;100.00
8051;BME280;4068;42.158;24.732;2024-03-17T04:58:29;100076.41;;;6.12;100.00
8051;BME280;4068;42.158;24.732;2024-03-17T05:00:55;100045.41;;;6.01;100.00
8051;BME280;4068;42.158;24.732;2024-03-17T05:03:20;100084.44;;;6.27;100.00
8051;BME280;4068;42.158;24.732;2024-03-17T05:05:46;100078.91;;;6.31;100.00
8051;BME280;4068;42.158;24.732;2024-03-17T05:08:11;100092.59;;;6.38;100.00
8051;BME280;4068;42.158;24.732;2024-03-17T05:10:37;100081.06;;;6.41;100.00
8051;BME280;4068;42.158;24.732;2024-03-17T05:13:02;100098.50;;;6.59;100.00
8051;BME280;4068;42.158;24.732;2024-03-17T05:15:28;100105.47;;;6.76;100.00
8051;BME280;4068;42.158;24.732;2024-03-17T05:17:54;100100.97;;;6.94;100.00
8051;BME280;4068;42.158;24.732;2024-03-17T05:20:19;100104.84;;;7.03;100.00
8051;BME280;4068;42.158;24.732;2024-03-17T05:22:46;100105.66;;;7.19;100.00
8051;BME280;4068;42.158;24.732;2024-03-17T05:25:13;100114.09;;;7.26;100.00
8051;BME280;4068;42.158;24.732;2024-03-17T05:27:38;100115.78;;;7.27;100.00
8051;BME280;4068;42.158;24.732;2024-03-17T05:30:04;100113.94;;;7.43;100.00
8051;BME280;4068;42.158;24.732;2024-03-17T05:32:33;100126.44;;;7.56;100.00
8051;BME280;4068;42.158;24.732;2024-03-17T05:34:59;100123.09;;;7.68;100.00
8051;BME280;4068;42.158;24.732;2024-03-17T05:37:24;100099.47;;;7.65;100.00
8051;BME280;4068;42.158;24.732;2024-03-17T05:39:50;100125.00;;;7.95;100.00
8051;BME280;4068;42.158;24.732;2024-03-17T05:42:15;100096.72;;;7.97;100.00
8051;BME280;4068;42.158;24.732;2024-03-17T05:44:41;100123.44;;;8.21;100.00
8051;BME280;4068;42.158;24.732;2024-03-17T05:47:19;100116.72;;;8.30;100.00
8051;BME280;4068;42.158;24.732;2024-03-17T05:49:44;100124.84;;;8.41;100.00
8051;BME280;4068;42.158;24.732;2024-03-17T05:52:11;100131.38;;;8.50;100.00
8051;BME280;4068;42.158;24.732;2024-03-17T05:54:36;100130.50;;;8.35;100.00
8051;BME280;4068;42.158;24.732;2024-03-17T05:57:03;100137.38;;;8.23;100.00
8051;BME280;4068;42.158;24.732;2024-03-17T05:59:30;100131.34;;;8.36;100.00
8051;BME280;4068;42.158;24.732;2024-03-17T06:01:58;100131.16;;;8.53;100.00
8051;BME280;4068;42.158;24.732;2024-03-17T06:04:24;100138.72;;;8.59;100.00
8051;BME280;4068;42.158;24.732;2024-03-17T06:06:49;100126.94;;;8.65;100.00
8051;BME280;4068;42.158;24.732;2024-03-17T06:09:15;100145.56;;;8.91;100.00
8051;BME280;4068;42.158;24.732;2024-03-17T06:11:43;100121.25;;;8.98;100.00
8051;BME280;4068;42.158;24.732;2024-03-17T06:14:09;100160.25;;;9.37;100.00
8051;BME280;4068;42.158;24.732;2024-03-17T06:16:37;100164.56;;;9.52;100.00
8051;BME280;4068;42.158;24.732;2024-03-17T06:19:02;100158.81;;;9.45;100.00
8051;BME280;4068;42.158;24.732;2024-03-17T06:21:28;100144.41;;;9.49;100.00
8051;BME280;4068;42.158;24.732;2024-03-17T06:23:54;100159.41;;;9.63;100.00
8051;BME280;4068;42.158;24.732;2024-03-17T06:26:19;100161.16;;;9.63;100.00
8051;BME280;4068;42.158;24.732;2024-03-17T06:28:46;100166.88;;;9.57;100.00
8051;BME280;4068;42.158;24.732;2024-03-17T06:31:11;100142.88;;;9.32;100.00
8051;BME280;4068;42.158;24.732;2024-03-17T06:33:37;100168.09;;;9.38;100.00
8051;BME280;4068;42.158;24.732;2024-03-17T06:36:03;100172.09;;;9.58;100.00
8051;BME280;4068;42.158;24.732;2024-03-17T06:38:30;100180.06;;;9.71;100.00
8051;BME280;4068;42.158;24.732;2024-03-17T06:40:55;100180.91;;;9.84;100.00
8051;BME280;4068;42.158;24.732;2024-03-17T06:43:21;100157.06;;;9.72;100.00
8051;BME280;4068;42.158;24.732;2024-03-17T06:45:59;100175.00;;;9.81;100.00
8051;BME280;4068;42.158;24.732;2024-03-17T06:48:26;100181.03;;;9.96;100.00
8051;BME280;4068;42.158;24.732;2024-03-17T06:50:52;100158.78;;;9.98;100.00
8051;BME280;4068;42.158;24.732;2024-03-17T06:53:23;100174.91;;;10.08;100.00
8051;BME280;4068;42.158;24.732;2024-03-17T06:55:55;100184.91;;;10.30;100.00
8051;BME280;4068;42.158;24.732;2024-03-17T06:58:22;100182.28;;;10.56;100.00
8051;BME280;4068;42.158;24.732;2024-03-17T07:01:00;100180.06;;;10.87;100.00
8051;BME280;4068;42.158;24.732;2024-03-17T07:03:28;100188.94;;;11.12;100.00
8051;BME280;4068;42.158;24.732;2024-03-17T07:05:55;100192.03;;;11.30;100.00
8051;BME280;4068;42.158;24.732;2024-03-17T07:08:21;100174.38;;;11.17;100.00
8051;BME280;4068;42.158;24.732;2024-03-17T07:11:00;100190.19;;;11.19;100.00
8051;BME280;4068;42.158;24.732;2024-03-17T07:13:29;100197.53;;;11.39;100.00
8051;BME280;4068;42.158;24.732;2024-03-17T07:15:55;100188.50;;;11.42;100.00
8051;BME280;4068;42.158;24.732;2024-03-17T07:18:20;100184.75;;;11.69;100.00
8051;BME280;4068;42.158;24.732;2024-03-17T07:20:46;100198.25;;;11.90;99.01
8051;BME280;4068;42.158;24.732;2024-03-17T07:23:14;100175.81;;;12.05;98.80
8051;BME280;4068;42.158;24.732;2024-03-17T07:25:41;100181.56;;;12.35;96.76
8051;BME280;4068;42.158;24.732;2024-03-17T07:28:06;100186.84;;;12.23;94.62
8051;BME280;4068;42.158;24.732;2024-03-17T07:30:32;100183.72;;;12.41;94.76
8051;BME280;4068;42.158;24.732;2024-03-17T07:32:57;100176.69;;;12.74;93.86
8051;BME280;4068;42.158;24.732;2024-03-17T07:35:23;100162.91;;;12.91;91.96
8051;BME280;4068;42.158;24.732;2024-03-17T07:37:48;100184.19;;;13.03;89.89
8051;BME280;4068;42.158;24.732;2024-03-17T07:40:14;100176.25;;;13.35;89.45
8051;BME280;4068;42.158;24.732;2024-03-17T07:42:40;100177.97;;;13.13;88.36
8051;BME280;4068;42.158;24.732;2024-03-17T07:45:07;100178.09;;;13.23;87.26
8051;BME280;4068;42.158;24.732;2024-03-17T07:47:33;100176.34;;;13.34;85.23
8051;BME280;4068;42.158;24.732;2024-03-17T07:50:04;100125.28;;;13.40;84.29
8051;BME280;4068;42.158;24.732;2024-03-17T07:52:33;100166.88;;;13.52;83.00
8051;BME280;4068;42.158;24.732;2024-03-17T07:54:59;100174.06;;;13.29;85.46
8051;BME280;4068;42.158;24.732;2024-03-17T07:57:24;100168.50;;;13.43;85.83
8051;BME280;4068;42.158;24.732;2024-03-17T07:59:50;100151.75;;;13.53;83.46
8051;BME280;4068;42.158;24.732;2024-03-17T08:02:16;100160.75;;;13.40;84.66
8051;BME280;4068;42.158;24.732;2024-03-17T08:04:42;100131.09;;;12.90;88.44
8051;BME280;4068;42.158;24.732;2024-03-17T08:07:10;100144.19;;;13.25;87.37
8051;BME280;4068;42.158;24.732;2024-03-17T08:09:36;100153.19;;;13.78;85.39
8051;BME280;4068;42.158;24.732;2024-03-17T08:12:01;100122.63;;;13.82;82.32
8051;BME280;4068;42.158;24.732;2024-03-17T08:14:29;100136.84;;;14.13;82.69
8051;BME280;4068;42.158;24.732;2024-03-17T08:16:55;100147.09;;;14.39;80.97
8051;BME280;4068;42.158;24.732;2024-03-17T08:19:21;100153.97;;;14.42;81.14
8051;BME280;4068;42.158;24.732;2024-03-17T08:21:46;100135.13;;;14.33;81.42
8051;BME280;4068;42.158;24.732;2024-03-17T08:24:12;100148.59;;;14.01;80.73
8051;BME280;4068;42.158;24.732;2024-03-17T08:26:39;100145.25;;;13.88;81.45
8051;BME280;4068;42.158;24.732;2024-03-17T08:29:06;100139.19;;;13.43;85.06
8051;BME280;4068;42.158;24.732;2024-03-17T08:31:32;100140.50;;;13.49;86.86
8051;BME280;4068;42.158;24.732;2024-03-17T08:33:57;100141.63;;;13.35;86.43
8051;BME280;4068;42.158;24.732;2024-03-17T08:36:23;100136.38;;;13.45;88.11
8051;BME280;4068;42.158;24.732;2024-03-17T08:38:50;100135.75;;;13.95;85.60
8051;BME280;4068;42.158;24.732;2024-03-17T08:41:16;100137.72;;;13.93;81.90
8051;BME280;4068;42.158;24.732;2024-03-17T08:43:41;100126.84;;;14.06;83.50
8051;BME280;4068;42.158;24.732;2024-03-17T08:46:09;100131.50;;;14.13;81.62
8051;BME280;4068;42.158;24.732;2024-03-17T08:48:54;100136.78;;;14.25;81.01
8051;BME280;4068;42.158;24.732;2024-03-17T08:51:19;100132.50;;;14.43;81.28
8051;BME280;4068;42.158;24.732;2024-03-17T08:53:45;100127.59;;;14.18;81.76
8051;BME280;4068;42.158;24.732;2024-03-17T08:56:11;100120.44;;;13.66;83.96
8051;BME280;4068;42.158;24.732;2024-03-17T08:58:36;100123.56;;;13.71;85.21
8051;BME280;4068;42.158;24.732;2024-03-17T09:01:08;100114.13;;;13.88;82.44
8051;BME280;4068;42.158;24.732;2024-03-17T09:03:35;100105.31;;;14.19;80.68
8051;BME280;4068;42.158;24.732;2024-03-17T09:06:00;100117.41;;;14.23;79.45
8051;BME280;4068;42.158;24.732;2024-03-17T09:08:26;100106.22;;;14.39;79.48
8051;BME280;4068;42.158;24.732;2024-03-17T09:10:53;100096.69;;;14.46;78.08
8051;BME280;4068;42.158;24.732;2024-03-17T09:13:22;100072.31;;;14.20;78.13
8051;BME280;4068;42.158;24.732;2024-03-17T09:15:56;100097.63;;;14.66;77.24
8051;BME280;4068;42.158;24.732;2024-03-17T09:18:23;100099.25;;;14.88;76.20
8051;BME280;4068;42.158;24.732;2024-03-17T09:23:24;100100.16;;;14.67;76.03
8051;BME280;4068;42.158;24.732;2024-03-17T09:26:06;100096.28;;;14.10;78.31
8051;BME280;4068;42.158;24.732;2024-03-17T09:28:36;100099.50;;;14.13;80.08
8051;BME280;4068;42.158;24.732;2024-03-17T09:31:03;100092.78;;;14.50;78.00
8051;BME280;4068;42.158;24.732;2024-03-17T09:33:31;100100.34;;;14.76;77.12
8051;BME280;4068;42.158;24.732;2024-03-17T09:36:02;100090.97;;;15.11;74.94
8051;BME280;4068;42.158;24.732;2024-03-17T09:38:29;100097.72;;;15.25;74.39
8051;BME280;4068;42.158;24.732;2024-03-17T09:40:55;100080.84;;;15.05;74.53
8051;BME280;4068;42.158;24.732;2024-03-17T09:43:27;100092.66;;;15.41;73.81
8051;BME280;4068;42.158;24.732;2024-03-17T09:45:53;100079.72;;;15.36;72.98
8051;BME280;4068;42.158;24.732;2024-03-17T09:48:26;100080.84;;;15.44;73.29
8051;BME280;4068;42.158;24.732;2024-03-17T09:51:00;100076.63;;;15.31;71.99
8051;BME280;4068;42.158;24.732;2024-03-17T09:53:31;100071.00;;;15.34;73.79
8051;BME280;4068;42.158;24.732;2024-03-17T09:58:34;100066.66;;;15.33;72.63
8051;BME280;4068;42.158;24.732;2024-03-17T10:01:00;100065.91;;;15.70;71.27
8051;BME280;4068;42.158;24.732;2024-03-17T10:03:46;100070.41;;;15.50;71.17
8051;BME280;4068;42.158;24.732;2024-03-17T10:06:15;100052.28;;;15.34;71.82
8051;BME280;4068;42.158;24.732;2024-03-17T10:08:46;100072.25;;;15.50;70.93
8051;BME280;4068;42.158;24.732;2024-03-17T10:11:13;100050.13;;;15.67;70.45
8051;BME280;4068;42.158;24.732;2024-03-17T10:13:41;100028.78;;;15.58;69.50
8051;BME280;4068;42.158;24.732;2024-03-17T10:16:20;100028.06;;;15.65;69.23
8051;BME280;4068;42.158;24.732;2024-03-17T10:18:46;100037.06;;;15.64;69.29
8051;BME280;4068;42.158;24.732;2024-03-17T10:21:26;100059.47;;;15.44;69.64
8051;BME280;4068;42.158;24.732;2024-03-17T10:24:14;100048.94;;;15.42;70.32
8051;BME280;4068;42.158;24.732;2024-03-17T10:26:46;100012.94;;;15.27;70.36
8051;BME280;4068;42.158;24.732;2024-03-17T10:29:23;100037.22;;;15.53;71.21
8051;BME280;4068;42.158;24.732;2024-03-17T10:31:53;100015.22;;;15.79;68.93
8051;BME280;4068;42.158;24.732;2024-03-17T10:34:19;100034.69;;;16.09;68.85
8051;BME280;4068;42.158;24.732;2024-03-17T10:36:46;100035.00;;;16.05;69.67
8051;BME280;4068;42.158;24.732;2024-03-17T10:39:27;100035.44;;;16.29;67.44
8051;BME280;4068;42.158;24.732;2024-03-17T10:42:01;100009.28;;;15.95;67.04
8051;BME280;4068;42.158;24.732;2024-03-17T10:44:28;100023.00;;;16.10;68.84
8051;BME280;4068;42.158;24.732;2024-03-17T10:46:55;99994.25;;;16.12;67.59
8051;BME280;4068;42.158;24.732;2024-03-17T10:49:26;100019.50;;;16.09;68.26
8051;BME280;4068;42.158;24.732;2024-03-17T10:51:57;100014.53;;;16.14;68.67
8051;BME280;4068;42.158;24.732;2024-03-17T10:54:24;100009.38;;;16.31;67.14
8051;BME280;4068;42.158;24.732;2024-03-17T11:00:03;99979.16;;;16.20;66.50
8051;BME280;4068;42.158;24.732;2024-03-17T11:02:31;99976.41;;;16.30;66.91
8051;BME280;4068;42.158;24.732;2024-03-17T11:05:10;99983.13;;;16.62;64.56
8051;BME280;4068;42.158;24.732;2024-03-17T11:07:39;99996.88;;;16.67;63.55
8051;BME280;4068;42.158;24.732;2024-03-17T11:10:15;100001.25;;;16.68;63.50
8051;BME280;4068;42.158;24.732;2024-03-17T11:12:47;99986.72;;;16.71;63.61
8051;BME280;4068;42.158;24.732;2024-03-17T11:17:52;99984.66;;;16.65;62.66
8051;BME280;4068;42.158;24.732;2024-03-17T11:20:21;99980.47;;;16.80;61.16
8051;BME280;4068;42.158;24.732;2024-03-17T11:22:52;99972.81;;;17.03;60.81
8051;BME280;4068;42.158;24.732;2024-03-17T11:28:07;99970.25;;;17.20;61.06
8051;BME280;4068;42.158;24.732;2024-03-17T11:39:27;99963.38;;;16.81;62.43
8051;BME280;4068;42.158;24.732;2024-03-17T11:41:51;99956.34;;;16.98;61.50
8051;BME280;4068;42.158;24.732;2024-03-17T11:47:00;99955.53;;;17.24;58.78
8051;BME280;4068;42.158;24.732;2024-03-17T11:49:33;99948.72;;;17.30;58.95
8051;BME280;4068;42.158;24.732;2024-03-17T11:52:01;99946.41;;;17.35;59.51
8051;BME280;4068;42.158;24.732;2024-03-17T11:54:31;99930.50;;;17.33;57.95
8051;BME280;4068;42.158;24.732;2024-03-17T11:57:05;99945.94;;;17.13;59.09
8051;BME280;4068;42.158;24.732;2024-03-17T11:59:35;99911.25;;;17.12;58.34
8051;BME280;4068;42.158;24.732;2024-03-17T12:02:01;99936.16;;;17.30;58.65
8051;BME280;4068;42.158;24.732;2024-03-17T12:04:29;99919.50;;;17.45;57.28
8051;BME280;4068;42.158;24.732;2024-03-17T12:06:56;99929.63;;;17.59;56.75
8051;BME280;4068;42.158;24.732;2024-03-17T12:09:24;99897.41;;;17.51;56.00
8051;BME280;4068;42.158;24.732;2024-03-17T12:14:27;99916.16;;;17.85;55.64
8051;BME280;4068;42.158;24.732;2024-03-17T12:16:55;99891.84;;;17.87;54.85
8051;BME280;4068;42.158;24.732;2024-03-17T12:19:22;99877.22;;;17.73;53.81
8051;BME280;4068;42.158;24.732;2024-03-17T12:21:49;99901.75;;;17.86;53.36
8051;BME280;4068;42.158;24.732;2024-03-17T12:24:17;99902.84;;;18.02;53.66
8051;BME280;4068;42.158;24.732;2024-03-17T12:26:44;99908.44;;;18.25;53.58
8051;BME280;4068;42.158;24.732;2024-03-17T12:31:57;99900.91;;;18.45;52.45
8051;BME280;4068;42.158;24.732;2024-03-17T12:34:25;99876.41;;;18.56;51.99
8051;BME280;4068;42.158;24.732;2024-03-17T12:36:53;99889.00;;;18.80;51.99
8051;BME280;4068;42.158;24.732;2024-03-17T12:39:21;99889.34;;;18.94;51.35
8051;BME280;4068;42.158;24.732;2024-03-17T12:47:02;99875.56;;;18.48;47.59
8051;BME280;4068;42.158;24.732;2024-03-17T12:49:29;99874.41;;;18.42;47.53
8051;BME280;4068;42.158;24.732;2024-03-17T12:51:55;99864.31;;;18.44;46.52
8051;BME280;4068;42.158;24.732;2024-03-17T12:54:22;99858.94;;;18.44;46.22
8051;BME280;4068;42.158;24.732;2024-03-17T12:56:50;99828.25;;;18.46;46.36
8051;BME280;4068;42.158;24.732;2024-03-17T12:59:41;99848.38;;;19.08;43.81
8051;BME280;4068;42.158;24.732;2024-03-17T13:02:26;99817.53;;;19.36;41.02
8051;BME280;4068;42.158;24.732;2024-03-17T13:05:18;99845.75;;;19.79;39.81
8051;BME280;4068;42.158;24.732;2024-03-17T13:07:46;99840.03;;;19.43;40.16
8051;BME280;4068;42.158;24.732;2024-03-17T13:10:18;99814.72;;;19.12;40.19
8051;BME280;4068;42.158;24.732;2024-03-17T13:12:45;99832.56;;;19.13;39.63
8051;BME280;4068;42.158;24.732;2024-03-17T13:15:15;99829.88;;;19.13;40.91
8051;BME280;4068;42.158;24.732;2024-03-17T13:17:42;99817.28;;;19.14;39.80
8051;BME280;4068;42.158;24.732;2024-03-17T13:20:13;99830.25;;;19.50;39.15
8051;BME280;4068;42.158;24.732;2024-03-17T13:22:43;99818.72;;;19.73;40.06
8051;BME280;4068;42.158;24.732;2024-03-17T13:27:42;99817.50;;;20.53;36.59
8051;BME280;4068;42.158;24.732;2024-03-17T13:30:08;99823.91;;;20.52;36.55
8051;BME280;4068;42.158;24.732;2024-03-17T13:32:35;99811.28;;;20.06;37.74
8051;BME280;4068;42.158;24.732;2024-03-17T13:35:01;99817.63;;;20.13;38.18
8051;BME280;4068;42.158;24.732;2024-03-17T13:37:27;99821.69;;;20.09;37.60
8051;BME280;4068;42.158;24.732;2024-03-17T13:39:53;99817.91;;;19.64;38.33
8051;BME280;4068;42.158;24.732;2024-03-17T13:42:18;99806.00;;;19.19;38.78
8051;BME280;4068;42.158;24.732;2024-03-17T13:44:44;99805.16;;;19.18;39.18